Latest Weather Observations for Norah Head

IDN60901

Issued at 8:31 am EST Sunday 25 September 2016 (issued every 10 minutes, with the page automatically refreshed every 10 minutes)

About weather observations | Map of Sydney area stations | Latest observations for Sydney area | Other Formats
Station Details ID: 061366 Name: NORAH HEAD AWS Lat: -33.28 Lon: 151.58 Height: 18.8 m
Data from the previous 72 hours. | See also: Recent months at Norah Head
Date/Time
EST
Temp
°C
App
Temp
°C
Dew
Point
°C
Rel
Hum
%
Delta-T
°C
Wind Press
QNH
hPa
Press
MSL
hPa
Rain since
9am
mm
Dir  Spd
km/h
Gust
km/h
Spd
kts
Gust
kts
25/08:30am 14.9 14.8 13.3 90 0.9 WNW 6 13 3 7 1007.1 1007.1 2.4
25/08:00am 14.4 14.2 13.0 91 0.8 NW 6 11 3 6 1007.1 1007.1 2.2
25/07:30am 14.3 14.5 12.9 91 0.8 NW 4 9 2 5 1006.9 1006.9 2.2
25/07:00am 14.0 13.8 12.9 93 0.6 NW 6 9 3 5 1007.0 1007.0 2.2
25/06:30am 14.1 13.8 13.3 95 0.4 NW 7 13 4 7 1007.0 1007.0 2.2
25/06:00am 13.8 13.4 12.5 92 0.7 WNW 6 7 3 4 1006.9 1006.9 1.8
25/05:30am 13.9 13.2 12.1 89 1.0 W 7 9 4 5 1006.6 1006.6 1.2
25/05:00am 14.2 13.1 11.9 86 1.2 W 9 15 5 8 1006.4 1006.4 0.8
25/04:30am 15.2 13.9 11.2 77 2.1 WNW 9 15 5 8 1006.4 1006.4 0.4
25/04:00am 15.7 14.3 10.9 73 2.6 W 9 20 5 11 1006.1 1006.1 0.2
25/03:30am 15.9 15.4 12.8 82 1.7 WNW 7 11 4 6 1006.0 1006.0 0.2
25/03:00am 16.5 15.0 11.9 74 2.5 WNW 11 20 6 11 1005.7 1005.7 0.0
25/02:30am 16.3 16.0 13.2 82 1.7 WNW 7 13 4 7 1005.4 1005.4 0.0
25/02:00am 16.1 16.7 14.3 89 1.0 NW 4 7 2 4 1005.4 1005.4 0.0
25/01:30am 15.9 16.4 13.9 88 1.1 NW 4 7 2 4 1006.2 1006.2 0.0
25/01:00am 16.1 16.4 14.6 91 0.9 NW 6 9 3 5 1006.5 1006.5 0.0
25/12:30am 16.2 16.4 14.6 90 0.9 NNW 7 9 4 5 1007.0 1007.0 0.0
25/12:00am 16.6 17.2 15.3 92 0.8 NNW 6 9 3 5 1007.4 1007.4 0.0
 
Date/Time
EST
Temp
°C
App
Temp
°C
Dew
Point
°C
Rel
Hum
%
Delta-T
°C
Wind Press
QNH
hPa
Press
MSL
hPa
Rain since
9am
mm
Dir  Spd
km/h
Gust
km/h
Spd
kts
Gust
kts
24/11:30pm 17.0 16.7 15.5 91 0.9 N 11 15 6 8 1007.2 1007.2 0.0
24/11:00pm 16.6 16.7 15.5 93 0.6 N 9 13 5 7 1007.5 1007.5 0.0
24/10:30pm 16.9 16.7 15.8 93 0.6 N 11 15 6 8 1007.8 1007.8 0.0
24/10:00pm 17.1 16.4 16.5 96 0.4 NNW 15 19 8 10 1007.8 1007.8 0.0
24/09:30pm 17.3 15.8 16.7 96 0.4 N 20 24 11 13 1007.9 1007.9 0.0
24/09:00pm 17.6 16.3 16.8 95 0.5 N 19 20 10 11 1008.6 1008.6 0.0
24/08:30pm 17.8 16.5 16.8 94 0.6 N 19 20 10 11 1008.8 1008.8 0.0
24/08:00pm 17.8 17.2 16.7 93 0.7 N 15 17 8 9 1008.6 1008.6 0.0
24/07:30pm 18.1 17.1 16.6 91 0.9 NNE 17 19 9 10 1008.2 1008.2 0.0
24/07:00pm 18.0 17.4 16.7 92 0.8 NE 15 17 8 9 1008.0 1008.0 0.0
24/06:30pm 18.1 17.9 16.6 91 0.9 NE 13 15 7 8 1008.2 1008.2 0.0
24/06:00pm 17.9 18.0 15.5 86 1.4 ENE 9 11 5 6 1008.1 1008.1 0.0
24/05:30pm 18.7 18.6 15.9 84 1.7 E 11 13 6 7 1007.9 1007.9 0.0
24/05:00pm 18.9 18.7 15.8 82 1.8 E 11 13 6 7 1007.9 1007.9 0.0
24/04:30pm 18.9 18.7 15.6 81 1.9 ESE 11 13 6 7 1007.8 1007.8 0.0
24/04:00pm 19.5 18.7 15.2 76 2.5 ESE 13 15 7 8 1007.7 1007.7 0.0
24/03:30pm 19.7 18.1 14.9 74 2.8 ESE 17 19 9 10 1007.7 1007.7 0.0
24/03:00pm 20.0 18.4 15.0 73 2.9 ESE 17 20 9 11 1007.7 1007.7 0.0
24/02:30pm 20.2 18.3 14.3 69 3.4 ESE 17 19 9 10 1008.1 1008.1 0.0
24/02:00pm 20.8 19.5 14.7 68 3.6 SE 15 17 8 9 1008.6 1008.6 0.0
24/01:30pm 21.2 19.5 14.8 67 3.8 SE 17 20 9 11 1009.1 1009.1 0.0
24/01:00pm 21.6 19.7 15.2 67 3.8 SSE 19 20 10 11 1009.6 1009.5 0.0
24/12:30pm 21.1 19.2 15.2 69 3.5 SSE 19 20 10 11 1010.0 1009.9 0.0
24/12:00pm 21.5 20.1 15.6 69 3.5 SSE 17 20 9 11 1010.4 1010.3 0.0
24/11:30am 21.3 19.8 15.2 68 3.6 SSE 17 19 9 10 1010.9 1010.8 0.0
24/11:00am 20.8 19.5 14.9 69 3.5 S 15 19 8 10 1011.3 1011.2 0.0
24/10:30am 20.6 19.6 14.5 68 3.6 S 13 17 7 9 1011.7 1011.6 0.0
24/10:00am 19.4 18.2 14.0 71 3.1 S 13 17 7 9 1012.0 1011.9 0.0
24/09:30am 19.4 18.3 14.2 72 3.0 SSW 13 15 7 8 1012.2 1012.1 0.0
24/09:00am 18.1 17.0 13.0 72 2.9 SSW 11 15 6 8 1012.5 1012.4 0.0
24/08:30am 18.2 18.0 13.1 72 2.9 SW 6 13 3 7 1012.7 1012.6 0.0
24/08:00am 17.1 16.1 12.4 74 2.6 WSW 9 15 5 8 1012.6 1012.5 0.0
24/07:30am 16.3 15.2 12.1 76 2.3 WSW 9 15 5 8 1012.6 1012.5 0.0
24/07:00am 14.8 13.5 11.2 79 1.9 W 9 17 5 9 1012.4 1012.3 0.0
24/06:30am 14.0 12.7 11.3 84 1.4 WNW 9 17 5 9 1012.1 1012.0 0.0
24/06:00am 13.3 12.0 11.4 88 1.0 W 9 17 5 9 1011.7 1011.6 0.0
24/05:30am 13.6 11.9 11.3 86 1.2 W 11 17 6 9 1011.5 1011.4 0.0
24/05:00am 13.6 12.0 11.5 87 1.1 W 11 19 6 10 1011.3 1011.2 0.0
24/04:30am 13.7 12.1 11.6 87 1.1 W 11 17 6 9 1011.1 1011.0 0.0
24/04:00am 14.0 12.4 11.7 86 1.2 WSW 11 19 6 10 1011.0 1010.9 0.0
24/03:30am 13.8 12.6 11.7 87 1.1 W 9 17 5 9 1010.9 1010.8 0.0
24/03:00am 13.9 12.0 11.8 87 1.1 W 13 17 7 9 1011.0 1010.9 0.0
24/02:30am 14.1 12.2 11.8 86 1.2 WSW 13 20 7 11 1010.9 1010.8 0.0
24/02:00am 14.0 12.1 11.7 86 1.2 WSW 13 17 7 9 1011.1 1011.0 0.0
24/01:30am 14.0 12.1 11.9 87 1.1 W 13 17 7 9 1011.2 1011.1 0.0
24/01:00am 13.8 12.2 11.7 87 1.1 W 11 19 6 10 1011.3 1011.2 0.0
24/12:30am 14.2 12.8 12.1 87 1.1 W 11 15 6 8 1011.5 1011.4 0.0
24/12:00am 14.4 12.4 11.6 83 1.5 W 13 17 7 9 1011.7 1011.6 0.0
 
Date/Time
EST
Temp
°C
App
Temp
°C
Dew
Point
°C
Rel
Hum
%
Delta-T
°C
Wind Press
QNH
hPa
Press
MSL
hPa
Rain since
9am
mm
Dir  Spd
km/h
Gust
km/h
Spd
kts
Gust
kts
23/11:30pm 14.4 13.0 12.1 86 1.2 W 11 15 6 8 1011.8 1011.7 0.0
23/11:00pm 15.2 13.9 12.5 84 1.5 WSW 11 19 6 10 1011.8 1011.7 0.0
23/10:30pm 15.5 14.1 12.3 81 1.7 SW 11 17 6 9 1011.7 1011.6 0.0
23/10:00pm 15.8 14.4 12.2 79 2.0 WSW 11 17 6 9 1011.9 1011.8 0.0
23/09:30pm 16.5 15.3 12.7 78 2.1 SW 11 19 6 10 1012.0 1011.9 0.0
23/09:00pm 17.2 14.3 13.9 81 1.9 SSW 22 33 12 18 1012.0 1011.9 0.0
23/08:30pm 17.6 13.2 14.1 80 2.0 SSW 30 39 16 21 1012.0 1011.9 0.0
23/08:00pm 17.5 12.4 13.6 78 2.2 SSW 33 46 18 25 1011.9 1011.8 0.0
23/07:30pm 17.6 12.7 13.7 78 2.2 SSW 32 43 17 23 1011.8 1011.7 0.0
23/07:00pm 17.7 12.7 14.0 79 2.1 S 33 43 18 23 1011.5 1011.4 0.0
23/06:30pm 17.5 11.4 13.0 75 2.5 SSW 37 52 20 28 1011.2 1011.1 0.0
23/06:00pm 17.8 11.1 13.3 75 2.5 S 41 54 22 29 1010.7 1010.6 0.0
23/05:30pm 17.6 10.2 12.5 72 2.8 S 43 59 23 32 1010.5 1010.4 0.0
23/05:00pm 17.9 11.1 13.2 74 2.7 SSW 41 54 22 29 1010.3 1010.2 0.0
23/04:30pm 18.0 10.9 13.3 74 2.7 SSW 43 52 23 28 1010.2 1010.1 0.0
23/04:00pm 18.2 11.1 13.3 73 2.8 S 43 56 23 30 1010.0 1009.9 0.0
23/03:30pm 18.3 11.0 12.7 70 3.1 SSW 43 54 23 29 1010.2 1010.1 0.0
23/03:00pm 18.2 10.8 13.1 72 2.9 SSW 44 61 24 33 1010.0 1009.9 0.0
23/02:30pm 18.2 9.8 12.4 69 3.2 SSW 48 61 26 33 1010.0 1009.9 0.0
23/02:00pm 18.7 10.4 12.7 68 3.4 SSW 48 63 26 34 1009.9 1009.8 0.0
23/01:30pm 18.8 12.3 12.8 68 3.4 SSW 39 54 21 29 1010.1 1010.0 0.0
23/01:00pm 18.5 12.0 12.9 70 3.2 SSW 39 54 21 29 1010.4 1010.3 0.0
23/12:30pm 18.3 11.2 12.1 67 3.4 SSW 41 56 22 30 1010.5 1010.4 0.0
23/12:00pm 18.3 11.5 12.1 67 3.4 SSW 39 57 21 31 1010.6 1010.5 0.0
23/11:56am 18.4 12.6 12.6 69 3.2 SSW 35 57 19 31 1010.6 1010.5 0.0
23/11:30am 18.3 12.1 12.5 69 3.2 SSW 37 50 20 27 1010.8 1010.7 0.0
23/11:00am 18.3 13.4 12.5 69 3.2 SSW 30 44 16 24 1010.9 1010.8 0.0
23/10:30am 18.5 13.4 12.0 66 3.6 SSW 30 43 16 23 1010.8 1010.7 0.0
23/10:00am 18.1 12.2 11.2 64 3.8 SSW 33 46 18 25 1010.9 1010.8 0.0
23/09:46am 18.3 13.0 11.1 63 3.9 SSW 30 50 16 27 1010.9 1010.8 0.0
23/09:30am 18.0 12.4 10.1 60 4.2 SSW 30 43 16 23 1010.9 1010.8 0.0
23/09:00am 17.6 12.9 9.2 58 4.4 SW 24 39 13 21 1011.0 1010.9 0.0
23/08:30am 17.7 13.8 9.3 58 4.4 SW 20 30 11 16 1010.9 1010.8 0.0
23/08:00am 17.6 14.2 9.2 58 4.4 SW 17 28 9 15 1010.7 1010.6 0.0
23/07:30am 16.6 12.7 8.8 60 4.0 SW 19 30 10 16 1010.7 1010.6 0.0
23/07:00am 16.5 12.9 9.7 64 3.6 SW 19 30 10 16 1010.6 1010.5 0.0
23/06:30am 16.2 13.0 8.4 60 4.0 SW 15 32 8 17 1010.4 1010.3 0.0
23/06:00am 16.4 12.0 9.1 62 3.8 SW 22 37 12 20 1009.9 1009.8 0.0
23/05:30am 16.5 11.1 9.4 63 3.7 SW 28 43 15 23 1009.2 1009.2 0.0
23/05:00am 16.4 11.2 8.9 61 3.9 SW 26 48 14 26 1008.7 1008.7 0.0
23/04:51am 16.5 10.9 8.7 60 4.0 SW 28 48 15 26 1008.6 1008.6 0.0
23/04:30am 16.5 12.4 8.7 60 4.0 SW 20 33 11 18 1008.4 1008.4 0.0
23/04:00am 16.4 12.4 8.1 58 4.2 SW 19 32 10 17 1008.2 1008.2 0.0
23/03:30am 16.3 12.2 7.8 57 4.3 SW 19 39 10 21 1008.1 1008.1 0.0
23/03:00am 16.5 12.4 8.0 57 4.3 SW 19 28 10 15 1008.1 1008.1 0.0
23/02:30am 16.5 12.9 8.2 58 4.2 WSW 17 28 9 15 1008.1 1008.1 0.0
23/02:00am 16.6 12.6 8.1 57 4.3 SW 19 43 10 23 1008.3 1008.3 0.0
23/01:30am 16.8 12.7 8.0 56 4.5 SW 19 32 10 17 1008.3 1008.3 0.0
23/01:00am 16.6 13.4 8.3 58 4.2 WSW 15 30 8 16 1008.2 1008.2 0.0
23/12:30am 16.7 13.5 8.4 58 4.2 WSW 15 28 8 15 1008.5 1008.5 0.0
23/12:00am 16.8 13.6 8.5 58 4.3 WSW 15 26 8 14 1008.5 1008.5 0.0
 
Date/Time
EST
Temp
°C
App
Temp
°C
Dew
Point
°C
Rel
Hum
%
Delta-T
°C
Wind Press
QNH
hPa
Press
MSL
hPa
Rain since
9am
mm
Dir  Spd
km/h
Gust
km/h
Spd
kts
Gust
kts
22/11:30pm 16.7 14.4 8.9 60 4.0 W 11 19 6 10 1008.6 1008.6 0.0
22/11:00pm 16.1 14.5 8.8 62 3.7 W 7 17 4 9 1008.6 1008.6 0.0
22/10:30pm 16.1 14.0 8.3 60 4.0 WNW 9 19 5 10 1008.6 1008.6 0.0
22/10:00pm 16.1 14.0 8.3 60 4.0 WNW 9 20 5 11 1008.6 1008.6 0.0
22/09:30pm 16.4 14.7 8.4 59 4.1 WNW 7 17 4 9 1008.6 1008.6 0.0
22/09:00pm 17.0 14.5 8.4 57 4.4 W 11 20 6 11 1008.7 1008.7 0.0
22/08:30pm 17.1 15.1 8.5 57 4.4 W 9 17 5 9 1008.5 1008.5 0.0
22/08:00pm 17.1 14.6 8.3 56 4.5 W 11 20 6 11 1008.3 1008.3 0.0
22/07:30pm 17.2 14.7 8.1 55 4.6 W 11 20 6 11 1008.3 1008.3 0.0
22/07:00pm 17.3 14.4 8.2 55 4.7 W 13 24 7 13 1008.0 1008.0 0.0
22/06:30pm 17.4 14.9 8.0 54 4.8 WNW 11 24 6 13 1007.5 1007.5 0.0
22/06:00pm 17.7 14.8 8.0 53 5.0 W 13 26 7 14 1007.4 1007.4 0.0
22/05:30pm 18.1 15.6 8.1 52 5.1 W 11 20 6 11 1007.1 1007.1 0.0
22/05:00pm 18.4 15.6 8.4 52 5.2 W 13 20 7 11 1006.9 1006.9 0.0
22/04:30pm 18.8 15.6 8.5 51 5.3 WSW 15 30 8 16 1006.4 1006.4 0.0
22/04:00pm 19.1 15.5 8.4 50 5.6 WSW 17 26 9 14 1006.2 1006.2 0.0
22/03:30pm 18.6 15.4 8.6 52 5.2 WSW 15 22 8 12 1006.1 1006.1 0.0
22/03:00pm 18.4 14.8 8.4 52 5.2 SW 17 28 9 15 1006.0 1006.0 0.0
22/02:30pm 19.5 15.9 8.5 49 5.7 WSW 17 32 9 17 1005.6 1005.6 0.0
22/02:00pm 19.1 16.3 8.4 50 5.6 WSW 13 22 7 12 1005.6 1005.6 0.0
22/01:30pm 20.0 16.5 8.7 48 5.9 W 17 30 9 16 1005.7 1005.7 0.0
22/01:00pm 20.9 18.3 9.5 48 6.1 WNW 13 28 7 15 1005.3 1005.3 0.0
22/12:30pm 21.7 20.1 10.2 48 6.3 W 9 17 5 9 1005.6 1005.6 0.0
22/12:00pm 19.9 18.3 10.3 54 5.2 W 9 20 5 11 1006.0 1006.0 0.0
22/11:30am 19.9 17.7 9.5 51 5.5 W 11 19 6 10 1006.3 1006.3 0.0
22/11:00am 21.3 19.5 10.8 51 5.8 NW 11 24 6 13 1006.5 1006.5 0.0
22/10:30am 20.0 17.6 10.1 53 5.3 W 13 26 7 14 1006.9 1006.9 0.0
22/10:00am 20.3 18.9 11.0 55 5.1 W 9 22 5 12 1006.9 1006.9 0.0
22/09:30am 19.4 17.4 10.1 55 5.0 W 11 20 6 11 1007.1 1007.1 0.0
22/09:00am 18.6 17.4 10.2 58 4.5 W 7 20 4 11 1007.1 1007.1 0.2

Latest Capital City Observations: Canberra | Sydney | Melbourne | Brisbane | Adelaide | Perth | Hobart | Darwin

Other Formats:

Comma delimited format used in spreadsheet applications
http://www.bom.gov.au/fwo/IDN60901/IDN60901.95770.axf

JavaScript Object Notation format (JSON) in row-major order
http://www.bom.gov.au/fwo/IDN60901/IDN60901.95770.json